createdAt,value
2023-03-29T00:03:23.713Z,77.87
2023-03-29T00:08:00.412Z,77.92
2023-03-29T00:11:48.427Z,77.98
2023-03-29T00:15:36.400Z,78.00
2023-03-29T00:19:23.866Z,78.11
2023-03-29T00:23:11.411Z,78.22
2023-03-29T00:27:00.666Z,78.23
2023-03-29T00:30:49.039Z,78.21
2023-03-29T00:34:37.479Z,78.29
2023-03-29T00:46:19.330Z,78.74
2023-03-29T00:49:48.202Z,78.71
2023-03-29T00:53:29.737Z,78.72
2023-03-29T00:57:10.564Z,78.72
2023-03-29T01:00:50.977Z,78.84
2023-03-29T01:04:31.007Z,79.04
2023-03-29T01:20:39.907Z,80.20
2023-03-29T01:36:20.717Z,80.09
2023-03-29T01:40:09.843Z,80.19
2023-03-29T01:44:04.756Z,80.26
2023-03-29T01:47:53.306Z,80.16
2023-03-29T01:59:46.324Z,79.81
2023-03-29T02:03:33.965Z,79.82
2023-03-29T02:07:21.758Z,79.73
2023-03-29T02:18:34.971Z,79.70
2023-03-29T02:21:05.062Z,79.66
2023-03-29T02:24:30.219Z,79.72
2023-03-29T02:28:19.398Z,79.83
2023-03-29T02:32:11.306Z,79.87
2023-03-29T02:36:10.083Z,79.89
2023-03-29T02:51:38.698Z,80.14
2023-03-29T02:55:22.659Z,80.13
2023-03-29T02:59:11.798Z,80.15
2023-03-29T03:02:43.533Z,79.91
2023-03-29T03:06:25.702Z,79.77
2023-03-29T03:13:42.306Z,79.81
2023-03-29T03:33:01.221Z,80.18
2023-03-29T03:36:52.620Z,80.36
2023-03-29T03:40:41.873Z,80.46
2023-03-29T03:44:31.133Z,80.49
2023-03-29T04:00:16.484Z,80.14
2023-03-29T04:03:07.907Z,79.91
2023-03-29T04:06:57.120Z,79.97
2023-03-29T04:10:46.382Z,80.03
2023-03-29T04:14:35.452Z,83.31
2023-03-29T04:18:30.252Z,84.43
2023-03-29T04:22:19.657Z,83.83
2023-03-29T04:25:52.627Z,82.38
2023-03-29T04:29:45.362Z,81.04
2023-03-29T04:32:54.513Z,78.46
2023-03-29T04:36:25.343Z,77.05
2023-03-29T04:39:34.723Z,76.22
2023-03-29T04:42:19.403Z,74.32
2023-03-29T04:45:22.578Z,73.63
2023-03-29T04:48:12.952Z,73.72
2023-03-29T04:51:45.170Z,72.47
2023-03-29T04:54:51.953Z,71.96
2023-03-29T04:58:32.270Z,71.33
2023-03-29T05:02:10.243Z,70.52
2023-03-29T05:05:18.587Z,70.42
2023-03-29T05:09:08.542Z,70.18
2023-03-29T05:12:40.472Z,71.81
2023-03-29T05:15:58.213Z,71.26
2023-03-29T05:19:26.232Z,71.42
2023-03-29T05:22:41.230Z,71.21
2023-03-29T05:26:16.315Z,70.36
2023-03-29T05:29:29.784Z,70.33
2023-03-29T05:32:38.261Z,70.19
2023-03-29T05:36:16.459Z,69.46
2023-03-29T05:38:57.040Z,69.98
2023-03-29T05:42:06.101Z,70.83
2023-03-29T05:44:55.605Z,69.35
2023-03-29T05:47:37.002Z,68.78
2023-03-29T05:51:08.206Z,68.78
2023-03-29T05:53:53.720Z,68.28
2023-03-29T05:57:32.805Z,68.53
2023-03-29T06:00:37.495Z,68.09
2023-03-29T06:04:06.372Z,66.67
2023-03-29T06:07:13.281Z,65.71
2023-03-29T06:10:25.486Z,57.66
2023-03-29T06:13:59.299Z,56.63
2023-03-29T06:16:53.139Z,53.28
2023-03-29T06:20:09.907Z,50.53
2023-03-29T06:22:55.040Z,48.09
2023-03-29T06:25:27.788Z,45.18
2023-03-29T06:28:44.639Z,44.83
2023-03-29T06:32:13.875Z,43.79
2023-03-29T06:35:50.066Z,41.80
2023-03-29T06:39:29.619Z,41.78
2023-03-29T06:43:01.205Z,41.28
2023-03-29T06:46:54.358Z,40.28
2023-03-29T06:50:15.500Z,42.30
2023-03-29T07:27:03.471Z,46.89
2023-03-29T07:30:54.764Z,47.52
2023-03-29T07:34:32.691Z,47.38
2023-03-29T07:38:18.950Z,48.36
2023-03-29T08:01:21.560Z,47.62
2023-03-29T08:04:48.284Z,45.98
2023-03-29T08:08:37.486Z,45.81
2023-03-29T08:12:29.482Z,47.67
2023-03-29T08:15:59.051Z,45.97
2023-03-29T08:19:59.582Z,45.56
2023-03-29T08:23:53.790Z,46.33
2023-03-29T08:27:25.248Z,45.77
2023-03-29T08:30:52.976Z,46.73
2023-03-29T08:34:50.479Z,47.66
2023-03-29T09:06:31.346Z,48.63
2023-03-29T09:10:15.024Z,48.19
2023-03-29T09:13:37.019Z,46.49
2023-03-29T09:17:00.620Z,44.59
2023-03-29T09:21:10.370Z,45.41
2023-03-29T09:24:58.418Z,48.20
2023-03-29T09:32:37.577Z,43.49
2023-03-29T09:36:44.785Z,43.07
2023-03-29T09:40:23.921Z,45.02
2023-03-29T09:48:11.916Z,43.88
2023-03-29T09:59:50.138Z,44.28
2023-03-29T10:03:37.725Z,44.37
2023-03-29T10:19:12.033Z,37.86
2023-03-29T10:22:59.639Z,37.79
2023-03-29T10:26:41.346Z,38.27
2023-03-29T10:30:30.637Z,40.42
2023-03-29T10:34:11.740Z,42.32
2023-03-29T10:38:01.281Z,40.18
2023-03-29T10:41:43.973Z,40.71
2023-03-29T10:45:13.056Z,39.74
2023-03-29T10:48:08.903Z,39.88
2023-03-29T10:51:35.590Z,39.59
2023-03-29T10:55:16.855Z,39.98
2023-03-29T10:58:57.644Z,37.64
2023-03-29T11:02:49.762Z,38.27
2023-03-29T11:06:14.692Z,39.26
2023-03-29T11:09:48.190Z,38.35
2023-03-29T11:13:44.311Z,39.23
2023-03-29T11:33:03.908Z,33.08
2023-03-29T11:36:29.094Z,33.97
2023-03-29T11:40:30.015Z,33.35
2023-03-29T11:44:24.040Z,32.43
2023-03-29T11:47:59.746Z,28.47
2023-03-29T12:03:44.754Z,27.74
2023-03-29T12:07:18.730Z,29.15
2023-03-29T12:10:44.721Z,28.56
2023-03-29T12:13:52.570Z,30.18
2023-03-29T12:23:20.711Z,30.29
2023-03-29T12:26:52.674Z,30.68
2023-03-29T12:30:27.365Z,32.24
2023-03-29T12:34:02.947Z,32.10
2023-03-29T12:37:33.392Z,32.33
2023-03-29T12:59:41.150Z,35.58
2023-03-29T13:03:27.647Z,34.98
2023-03-29T13:07:02.619Z,34.09
2023-03-29T13:22:07.045Z,33.71
2023-03-29T13:25:49.203Z,33.03
2023-03-29T13:30:02.118Z,32.03
2023-03-29T13:33:42.407Z,32.58
2023-03-29T13:37:32.829Z,32.23
2023-03-29T13:41:34.443Z,31.64
2023-03-29T13:45:36.845Z,26.94
2023-03-29T13:52:37.350Z,27.42
2023-03-29T13:56:28.993Z,27.03
2023-03-29T14:00:19.562Z,26.82
2023-03-29T14:34:54.152Z,22.06
2023-03-29T14:38:24.685Z,23.07
2023-03-29T14:42:14.305Z,22.38
2023-03-29T14:45:46.591Z,24.34
2023-03-29T14:49:06.800Z,26.13
2023-03-29T14:52:50.322Z,28.59
2023-03-29T14:56:24.719Z,29.81
2023-03-29T14:59:47.125Z,31.36
2023-03-29T15:03:31.090Z,32.12
2023-03-29T15:06:44.282Z,33.20
2023-03-29T15:25:50.868Z,36.30
2023-03-29T15:29:30.107Z,35.58
2023-03-29T15:33:14.789Z,36.55
2023-03-29T15:36:45.662Z,37.08
2023-03-29T15:39:53.173Z,36.62
2023-03-29T15:43:27.112Z,36.72
2023-03-29T15:46:58.765Z,36.82
2023-03-29T15:50:14.864Z,37.47
2023-03-29T15:54:04.384Z,38.51
2023-03-29T15:56:45.127Z,38.18
2023-03-29T15:59:13.686Z,38.82
2023-03-29T16:02:28.545Z,39.70
2023-03-29T16:05:57.393Z,41.02
2023-03-29T16:09:35.701Z,41.12
2023-03-29T16:12:37.905Z,41.93
2023-03-29T16:16:05.332Z,41.69
2023-03-29T16:19:16.010Z,42.06
2023-03-29T16:23:07.963Z,42.77
2023-03-29T16:26:39.800Z,43.59
2023-03-29T16:30:42.129Z,43.26
2023-03-29T16:34:29.764Z,44.33
2023-03-29T16:37:52.056Z,44.36
2023-03-29T16:41:23.629Z,44.40
2023-03-29T16:45:13.093Z,44.50
2023-03-29T16:48:45.970Z,44.84
2023-03-29T16:51:55.222Z,45.52
2023-03-29T16:55:43.083Z,45.75
2023-03-29T16:59:12.636Z,46.07
2023-03-29T17:02:42.095Z,45.94
2023-03-29T17:06:27.800Z,46.42
2023-03-29T17:10:10.509Z,46.36
2023-03-29T17:13:59.778Z,46.65
2023-03-29T17:17:49.237Z,46.71
2023-03-29T17:22:05.972Z,46.93
2023-03-29T17:25:30.849Z,47.24
2023-03-29T17:29:23.422Z,47.49
2023-03-29T17:33:12.646Z,47.39
2023-03-29T17:40:57.539Z,47.83
2023-03-29T17:44:46.523Z,47.71
2023-03-29T17:48:35.761Z,48.34
2023-03-29T17:52:25.366Z,48.37
2023-03-29T17:56:14.512Z,48.10
2023-03-29T17:59:52.444Z,48.05
2023-03-29T18:03:32.578Z,48.36
2023-03-29T18:07:21.617Z,48.74
2023-03-29T18:10:50.851Z,49.12
2023-03-29T18:18:47.686Z,49.57
2023-03-29T18:22:36.978Z,49.67
2023-03-29T18:26:26.921Z,49.64
2023-03-29T18:30:16.158Z,49.48
2023-03-29T18:34:05.295Z,49.95
2023-03-29T18:37:54.591Z,49.52
2023-03-29T18:41:46.416Z,50.01
2023-03-29T18:45:35.924Z,50.26
2023-03-29T18:49:17.975Z,50.02
2023-03-29T18:53:07.976Z,50.53
2023-03-29T18:56:59.383Z,50.36
2023-03-29T19:12:40.491Z,51.18
2023-03-29T19:16:23.864Z,51.36
2023-03-29T19:20:13.332Z,51.54
2023-03-29T19:23:51.726Z,51.61
2023-03-29T19:27:40.758Z,51.34
2023-03-29T19:31:29.858Z,51.43
2023-03-29T19:35:19.135Z,51.22
2023-03-29T19:39:08.316Z,51.79
2023-03-29T19:42:36.170Z,51.69
2023-03-29T19:46:08.347Z,51.99
2023-03-29T19:49:50.522Z,52.09
2023-03-29T19:52:39.065Z,51.91
2023-03-29T19:55:42.393Z,52.04
2023-03-29T19:59:19.862Z,52.25
2023-03-29T20:02:17.217Z,52.28
2023-03-29T20:05:42.207Z,52.15
2023-03-29T20:09:14.456Z,52.41
2023-03-29T20:12:57.709Z,52.59
2023-03-29T20:16:46.916Z,52.77
2023-03-29T20:20:36.483Z,52.57
2023-03-29T20:24:25.900Z,52.69
2023-03-29T20:28:15.122Z,52.85
2023-03-29T20:32:04.285Z,52.95
2023-03-29T20:35:53.719Z,52.69
2023-03-29T20:39:37.545Z,52.50
2023-03-29T20:43:26.815Z,52.54
2023-03-29T20:47:24.910Z,52.62
2023-03-29T20:51:14.139Z,52.61
2023-03-29T20:55:03.185Z,52.69
2023-03-29T20:58:52.791Z,52.80
2023-03-29T21:02:41.867Z,52.59
2023-03-29T21:06:31.089Z,52.75
2023-03-29T21:10:20.315Z,52.46
2023-03-29T21:18:05.266Z,52.66
2023-03-29T21:21:47.211Z,52.97
2023-03-29T21:25:36.178Z,52.95
2023-03-29T21:29:24.650Z,52.81
2023-03-29T21:32:38.678Z,52.68
2023-03-29T21:36:27.656Z,52.84
2023-03-29T21:40:44.102Z,53.07
2023-03-29T21:44:34.245Z,53.53
2023-03-29T21:48:03.232Z,53.17
2023-03-29T21:51:45.501Z,53.80
2023-03-29T21:55:34.566Z,53.53
2023-03-29T21:59:23.550Z,53.59
2023-03-29T22:03:12.577Z,53.75
2023-03-29T22:07:00.143Z,53.55
2023-03-29T22:22:19.847Z,53.95
2023-03-29T22:26:08.982Z,54.49
2023-03-29T22:29:58.153Z,54.46
2023-03-29T22:33:47.055Z,54.75
2023-03-29T22:36:37.159Z,54.86
2023-03-29T22:39:45.773Z,54.83
2023-03-29T23:10:31.984Z,56.21
2023-03-29T23:14:21.334Z,56.57
2023-03-29T23:18:10.471Z,56.81
2023-03-29T23:21:59.762Z,57.54
2023-03-29T23:25:48.989Z,58.16
2023-03-29T23:29:38.125Z,58.22
2023-03-29T23:33:27.950Z,58.27
2023-03-29T23:37:16.927Z,57.97
2023-03-29T23:41:09.126Z,58.58
2023-03-29T23:44:58.442Z,58.55
2023-03-29T23:48:47.399Z,58.45
2023-03-29T23:52:36.885Z,58.96
2023-03-29T23:56:25.932Z,58.77
